Time;durP1;ratioP1;P1;durP2;ratioP2;P2;SDS_P1;SDS_P2;PMS_P1;PMS_P2;Temp;Humidity;BMP_temperature;BMP_pressure;BME280_temperature;BME280_humidity;BME280_pressure;Samples;Min_cycle;Max_cycle;Signal;HPM_P1;HPM_P2
2022/01/17 00:00:17;;;;;;;20.52;9.70;;;-1.50;99.90;;;;;;5292640;28;20027;-76
2022/01/17 00:02:50;;;;;;;18.98;9.07;;;-1.40;99.90;;;;;;5292423;28;20032;-75
2022/01/17 00:05:20;;;;;;;20.17;9.43;;;-1.20;99.90;;;;;;5292382;28;20044;-74
2022/01/17 00:07:51;;;;;;;17.13;8.25;;;-1.40;99.90;;;;;;5292379;28;20063;-73
2022/01/17 00:10:22;;;;;;;18.63;9.75;;;-1.30;99.90;;;;;;5292114;28;20020;-74
2022/01/17 00:12:57;;;;;;;19.67;9.00;;;-1.60;99.90;;;;;;5292401;28;20024;-74
2022/01/17 00:15:40;;;;;;;21.95;9.63;;;-1.50;99.90;;;;;;5292394;28;20016;-74
2022/01/17 00:20:47;;;;;;;20.38;9.73;;;-1.20;99.90;;;;;;5292176;28;20020;-75
2022/01/17 00:23:17;;;;;;;19.42;9.90;;;-1.20;99.90;;;;;;5292153;28;20030;-73
2022/01/17 00:25:48;;;;;;;23.17;9.95;;;-1.30;99.90;;;;;;5292123;28;20554;-75
2022/01/17 00:28:19;;;;;;;20.17;9.27;;;-1.50;99.90;;;;;;5291838;28;20067;-73
2022/01/17 00:30:50;;;;;;;18.10;9.60;;;-1.40;99.90;;;;;;5291891;28;20039;-75
2022/01/17 00:33:21;;;;;;;22.58;9.90;;;-1.50;99.90;;;;;;5291744;28;20516;-74
2022/01/17 00:35:52;;;;;;;19.67;9.10;;;-1.30;99.90;;;;;;5291828;28;20023;-73
2022/01/17 00:38:23;;;;;;;24.92;9.40;;;-1.60;99.90;;;;;;5291726;28;20027;-75
2022/01/17 00:40:54;;;;;;;21.23;9.75;;;-1.60;99.90;;;;;;5291765;28;20103;-75
2022/01/17 00:43:25;;;;;;;17.30;8.75;;;-1.60;99.90;;;;;;5291785;28;20567;-74
2022/01/17 00:45:57;;;;;;;23.65;9.38;;;-1.60;99.90;;;;;;5291602;28;20016;-75
2022/01/17 00:48:28;;;;;;;19.38;8.82;;;-1.50;99.90;;;;;;5291616;28;20444;-75
2022/01/17 00:50:58;;;;;;;18.85;8.98;;;-1.30;99.90;;;;;;5291497;28;20054;-73
2022/01/17 00:53:30;;;;;;;24.77;9.30;;;-1.40;99.90;;;;;;5291368;28;20028;-75
2022/01/17 00:56:01;;;;;;;17.52;8.75;;;-1.40;99.90;;;;;;5291317;28;20016;-75
2022/01/17 00:58:33;;;;;;;19.83;9.38;;;-1.50;99.90;;;;;;5290909;28;20112;-74
2022/01/17 01:01:03;;;;;;;18.98;9.07;;;-1.70;99.90;;;;;;5291243;28;20470;-75
2022/01/17 01:03:35;;;;;;;19.02;8.40;;;-1.60;99.90;;;;;;5291303;28;20051;-75
2022/01/17 01:06:06;;;;;;;21.25;9.18;;;-1.70;99.90;;;;;;5291198;28;20028;-75
2022/01/17 01:08:36;;;;;;;23.00;9.10;;;-1.90;99.90;;;;;;5291119;28;20023;-75
2022/01/17 01:11:08;;;;;;;24.02;9.20;;;-1.60;99.90;;;;;;5291139;28;20481;-76
2022/01/17 01:13:39;;;;;;;22.92;9.10;;;-1.60;99.90;;;;;;5291120;28;20034;-73
2022/01/17 01:16:24;;;;;;;19.15;10.05;;;-2.00;99.90;;;;;;5291001;28;20028;-76
2022/01/17 01:19:08;;;;;;;27.42;10.27;;;-2.00;99.90;;;;;;5291035;28;20144;-74
2022/01/17 01:29:55;;;;;;;19.08;9.20;;;-1.90;99.90;;;;;;5289943;28;20104;-73
2022/01/17 01:32:35;;;;;;;19.20;8.90;;;-1.70;99.90;;;;;;5290531;28;20008;-71
2022/01/17 01:35:10;;;;;;;17.92;8.55;;;-1.70;99.90;;;;;;5290813;28;20019;-69
2022/01/17 01:37:44;;;;;;;24.42;9.80;;;-2.10;99.90;;;;;;5290741;28;20098;-72
2022/01/17 01:40:16;;;;;;;24.23;9.85;;;-2.10;99.90;;;;;;5290543;28;20116;-73
2022/01/17 01:42:51;;;;;;;18.65;9.40;;;-2.00;99.90;;;;;;5290652;28;20463;-73
2022/01/17 01:45:22;;;;;;;20.77;9.23;;;-1.90;99.90;;;;;;5290700;28;20036;-73
2022/01/17 01:47:53;;;;;;;17.60;9.02;;;-1.80;99.90;;;;;;5290655;28;20366;-72
2022/01/17 01:50:24;;;;;;;19.92;9.32;;;-1.80;99.90;;;;;;5290623;28;20119;-71
2022/01/17 01:52:55;;;;;;;21.15;9.43;;;-1.80;99.90;;;;;;5290525;28;20055;-71
2022/01/17 01:55:26;;;;;;;19.15;9.38;;;-1.90;99.90;;;;;;5289850;28;20063;-70
2022/01/17 01:57:57;;;;;;;18.58;8.52;;;-2.00;99.90;;;;;;5289855;28;20044;-74
2022/01/17 02:00:28;;;;;;;22.00;8.85;;;-1.90;99.90;;;;;;5290202;28;20027;-73
2022/01/17 02:03:00;;;;;;;16.50;7.20;;;-1.70;99.90;;;;;;5290162;28;20019;-75
2022/01/17 02:05:31;;;;;;;15.90;8.05;;;-1.40;99.90;;;;;;5290228;28;20026;-75
2022/01/17 02:08:01;;;;;;;19.52;8.30;;;-1.70;99.90;;;;;;5290138;28;20015;-74
2022/01/17 02:10:32;;;;;;;15.18;6.55;;;-1.20;99.90;;;;;;5290056;28;20035;-73
2022/01/17 02:13:03;;;;;;;17.77;8.13;;;-0.80;99.90;;;;;;5290102;28;20466;-74
2022/01/17 02:15:36;;;;;;;15.95;6.95;;;-1.30;99.90;;;;;;5271691;28;20359;-74
2022/01/17 02:18:08;;;;;;;15.57;6.18;;;-1.40;99.90;;;;;;5290270;28;20090;-73
2022/01/17 02:20:45;;;;;;;14.90;6.03;;;-1.00;99.90;;;;;;5290049;28;20106;-74
2022/01/17 02:23:17;;;;;;;19.20;6.53;;;-1.00;99.90;;;;;;5290268;28;20016;-73
2022/01/17 02:25:49;;;;;;;15.20;5.85;;;-1.30;99.90;;;;;;5290187;28;20031;-74
2022/01/17 02:28:20;;;;;;;15.88;7.10;;;-0.20;99.90;;;;;;5289916;28;20028;-74
2022/01/17 02:30:51;;;;;;;15.07;6.55;;;-0.40;99.90;;;;;;5290330;28;20035;-73
2022/01/17 02:33:22;;;;;;;14.68;6.28;;;-0.20;99.90;;;;;;5289842;28;20183;-74
2022/01/17 02:35:53;;;;;;;14.20;6.25;;;-0.70;99.90;;;;;;5289999;28;20410;-73
2022/01/17 02:38:24;;;;;;;11.93;6.05;;;-0.70;99.90;;;;;;5289866;28;20442;-74
2022/01/17 02:40:55;;;;;;;12.13;6.38;;;-0.40;99.90;;;;;;5291474;28;20083;-70
2022/01/17 02:43:27;;;;;;;13.25;6.22;;;-1.00;99.90;;;;;;5293920;28;20023;-70
2022/01/17 02:48:35;;;;;;;16.38;5.88;;;-0.30;99.90;;;;;;5294081;28;20031;-70
2022/01/17 02:51:08;;;;;;;16.65;5.97;;;-0.10;99.90;;;;;;5293936;28;20024;-69
2022/01/17 02:53:40;;;;;;;13.57;6.38;;;-0.20;99.90;;;;;;5293866;28;20024;-70
2022/01/17 02:56:11;;;;;;;13.18;5.55;;;-0.50;99.90;;;;;;5275691;28;20023;-69
2022/01/17 02:58:42;;;;;;;14.52;6.13;;;0.10;99.90;;;;;;5293379;28;20066;-68
2022/01/17 03:01:16;;;;;;;18.42;5.97;;;-0.50;99.90;;;;;;5293887;28;20125;-70
2022/01/17 03:03:48;;;;;;;12.70;5.75;;;-0.30;99.90;;;;;;5305840;27;20374;-68
2022/01/17 03:06:19;;;;;;;17.60;5.57;;;-0.80;99.90;;;;;;5314979;27;20027;-68
2022/01/17 03:08:51;;;;;;;11.18;5.22;;;-0.60;99.90;;;;;;5314671;27;20053;-70
2022/01/17 03:11:25;;;;;;;14.43;5.88;;;-0.20;99.90;;;;;;5314982;27;20031;-69
2022/01/17 03:13:58;;;;;;;13.23;6.53;;;-0.10;99.90;;;;;;5314765;27;20116;-70
2022/01/17 03:16:31;;;;;;;13.73;5.65;;;-0.30;99.90;;;;;;5314761;27;20061;-70
2022/01/17 03:19:01;;;;;;;13.38;6.25;;;0.00;99.90;;;;;;5314579;27;20493;-69
2022/01/17 03:21:32;;;;;;;14.38;6.00;;;0.00;99.90;;;;;;5314447;27;20084;-68
2022/01/17 03:24:03;;;;;;;14.15;5.35;;;-0.10;99.90;;;;;;5314340;27;20038;-69
2022/01/17 03:26:34;;;;;;;13.98;5.22;;;0.00;99.90;;;;;;5314354;27;20030;-70
2022/01/17 03:29:05;;;;;;;12.75;5.88;;;0.20;99.90;;;;;;5313593;27;20358;-69
2022/01/17 03:31:36;;;;;;;19.20;5.70;;;0.30;99.90;;;;;;5314283;27;20034;-69
2022/01/17 03:34:07;;;;;;;17.90;6.10;;;0.30;99.90;;;;;;5313457;27;20470;-69
2022/01/17 03:36:38;;;;;;;14.10;5.65;;;0.40;99.90;;;;;;5312870;27;20034;-69
2022/01/17 03:39:09;;;;;;;11.68;5.55;;;0.40;99.90;;;;;;5294278;27;20043;-69
2022/01/17 03:41:40;;;;;;;17.10;6.15;;;0.40;99.90;;;;;;5312780;27;20031;-69
2022/01/17 03:44:11;;;;;;;14.93;5.70;;;0.40;99.90;;;;;;5312513;27;20034;-69
2022/01/17 03:46:42;;;;;;;11.90;4.90;;;0.60;99.90;;;;;;5312578;27;20061;-70
2022/01/17 03:49:13;;;;;;;15.77;5.30;;;0.80;99.90;;;;;;5312758;27;20104;-70
2022/01/17 03:51:44;;;;;;;13.52;5.20;;;0.50;99.90;;;;;;5312207;27;20019;-69
2022/01/17 03:54:16;;;;;;;8.23;3.97;;;0.90;99.90;;;;;;5312447;27;20030;-69
2022/01/17 03:56:47;;;;;;;8.85;4.50;;;0.90;99.90;;;;;;5312279;27;20027;-72
2022/01/17 03:59:17;;;;;;;11.90;5.13;;;1.10;99.90;;;;;;5311961;27;20058;-71
2022/01/17 04:01:48;;;;;;;14.57;4.95;;;0.70;99.90;;;;;;5312095;27;20073;-70
2022/01/17 04:04:19;;;;;;;10.07;4.85;;;1.00;99.90;;;;;;5312343;27;20031;-70
2022/01/17 04:06:50;;;;;;;9.25;4.82;;;1.40;99.90;;;;;;5312145;27;20032;-72
2022/01/17 04:09:21;;;;;;;12.52;4.90;;;1.10;99.90;;;;;;5312075;27;20027;-73
2022/01/17 04:11:52;;;;;;;16.00;4.95;;;1.20;99.90;;;;;;5311915;27;20011;-73
2022/01/17 04:14:23;;;;;;;13.80;5.00;;;1.20;99.90;;;;;;5312141;27;20054;-74
2022/01/17 04:16:53;;;;;;;14.13;5.20;;;1.10;99.90;;;;;;5311953;27;20102;-74
2022/01/17 04:19:24;;;;;;;12.45;4.80;;;1.30;99.90;;;;;;5311920;27;20058;-74
2022/01/17 04:21:55;;;;;;;14.02;5.18;;;1.70;99.90;;;;;;5311850;27;20023;-75
2022/01/17 04:24:26;;;;;;;13.43;4.93;;;1.30;99.90;;;;;;5311953;27;20019;-74
2022/01/17 04:26:57;;;;;;;14.07;5.15;;;1.10;99.90;;;;;;5311683;27;20019;-75
2022/01/17 04:29:28;;;;;;;13.15;5.10;;;1.20;99.90;;;;;;5311589;27;20028;-75
2022/01/17 04:32:00;;;;;;;11.43;4.63;;;1.20;99.90;;;;;;5293170;27;20496;-75
2022/01/17 04:34:32;;;;;;;10.32;4.50;;;1.40;99.90;;;;;;5311417;27;20019;-75
2022/01/17 04:37:03;;;;;;;9.25;4.40;;;1.70;99.90;;;;;;5311401;27;20102;-75
2022/01/17 04:39:34;;;;;;;12.60;4.78;;;1.60;99.90;;;;;;5311375;27;20450;-75
2022/01/17 04:42:12;;;;;;;11.38;4.80;;;1.50;99.90;;;;;;5311537;27;20106;-76
2022/01/17 04:47:36;;;;;;;10.98;4.50;;;1.00;99.90;;;;;;5311491;27;20028;-75
2022/01/17 04:50:17;;;;;;;13.00;5.70;;;1.60;99.90;;;;;;5311311;27;20093;-75
2022/01/17 04:52:49;;;;;;;11.40;4.72;;;1.80;99.90;;;;;;5311253;27;20015;-76
2022/01/17 04:55:20;;;;;;;12.23;4.78;;;1.20;99.90;;;;;;5311222;27;20454;-76
2022/01/17 04:57:52;;;;;;;16.42;4.97;;;1.30;99.90;;;;;;5310848;27;20071;-76
2022/01/17 05:00:25;;;;;;;14.90;5.07;;;1.50;99.90;;;;;;5310750;27;20038;-76
2022/01/17 05:02:55;;;;;;;16.30;5.47;;;1.50;99.90;;;;;;5311581;27;20027;-77
2022/01/17 05:05:26;;;;;;;17.02;5.95;;;1.90;99.90;;;;;;5312723;27;20031;-76
2022/01/17 05:07:57;;;;;;;11.32;4.85;;;1.90;99.90;;;;;;5312341;27;20039;-76
2022/01/17 05:10:28;;;;;;;16.00;6.18;;;2.00;99.90;;;;;;5312086;27;20110;-75
2022/01/17 05:12:59;;;;;;;13.88;6.22;;;1.90;99.90;;;;;;5312507;27;20481;-74
2022/01/17 05:15:36;;;;;;;13.73;5.10;;;2.10;99.90;;;;;;5312311;27;20031;-75
2022/01/17 05:20:42;;;;;;;13.48;5.47;;;2.00;99.90;;;;;;5312368;27;20481;-75
2022/01/17 05:23:13;;;;;;;15.18;5.72;;;2.10;99.90;;;;;;5293969;27;20477;-75
2022/01/17 05:25:44;;;;;;;16.67;5.95;;;2.00;99.90;;;;;;5312171;27;20027;-76
2022/01/17 05:28:15;;;;;;;15.45;5.40;;;1.80;99.90;;;;;;5312042;27;20027;-73
2022/01/17 05:30:45;;;;;;;13.25;5.60;;;1.90;99.90;;;;;;5311697;27;20027;-71
2022/01/17 05:33:16;;;;;;;13.25;5.30;;;1.90;99.90;;;;;;5311633;27;20026;-70
2022/01/17 05:35:47;;;;;;;13.38;4.90;;;2.10;99.90;;;;;;5306892;27;20051;-69
2022/01/17 05:38:18;;;;;;;13.68;5.20;;;2.20;99.90;;;;;;5290717;28;20041;-69
2022/01/17 05:40:49;;;;;;;22.38;5.57;;;1.80;99.90;;;;;;5290573;28;20058;-71
2022/01/17 05:43:20;;;;;;;15.30;5.63;;;1.90;99.90;;;;;;5290779;28;20055;-70
2022/01/17 05:45:50;;;;;;;20.02;6.03;;;1.80;99.90;;;;;;5272389;28;20031;-69
2022/01/17 05:48:21;;;;;;;15.52;5.53;;;2.10;99.90;;;;;;5290584;28;20027;-69
2022/01/17 05:50:52;;;;;;;18.65;5.15;;;2.10;99.90;;;;;;5290591;28;20020;-69
2022/01/17 05:53:23;;;;;;;15.65;5.13;;;2.20;99.90;;;;;;5290602;28;20439;-70
2022/01/17 05:55:54;;;;;;;11.15;4.53;;;2.10;99.90;;;;;;5290449;28;20524;-74
2022/01/17 05:58:25;;;;;;;17.67;5.32;;;2.30;99.90;;;;;;5290311;28;20125;-69
2022/01/17 06:00:56;;;;;;;15.02;5.60;;;2.50;99.90;;;;;;5290522;28;20437;-73
2022/01/17 06:03:27;;;;;;;13.02;5.18;;;2.40;99.90;;;;;;5290358;28;20015;-72
2022/01/17 06:05:58;;;;;;;13.93;5.55;;;2.70;99.90;;;;;;5271865;28;20050;-72
2022/01/17 06:08:29;;;;;;;16.73;5.07;;;2.70;99.90;;;;;;5290381;28;20019;-74
2022/01/17 06:11:00;;;;;;;12.25;4.80;;;2.80;99.90;;;;;;5290271;28;20020;-70
2022/01/17 06:13:31;;;;;;;15.85;5.40;;;2.80;99.90;;;;;;5290461;28;20031;-70
2022/01/17 06:16:02;;;;;;;12.85;5.65;;;2.60;99.90;;;;;;5294103;28;20019;-74
2022/01/17 06:18:33;;;;;;;13.48;4.72;;;2.90;99.90;;;;;;5294558;28;20059;-72
2022/01/17 06:21:05;;;;;;;12.95;4.95;;;2.90;99.90;;;;;;5294771;28;20023;-71
2022/01/17 06:23:35;;;;;;;18.80;5.25;;;2.90;99.90;;;;;;5294540;28;20019;-70
2022/01/17 06:26:06;;;;;;;18.73;5.55;;;3.00;99.90;;;;;;5294466;28;20551;-70
2022/01/17 06:28:37;;;;;;;14.18;5.20;;;3.00;99.90;;;;;;5294022;28;20024;-69
2022/01/17 06:31:08;;;;;;;14.82;6.13;;;3.10;99.90;;;;;;5294241;28;20054;-76
2022/01/17 06:33:39;;;;;;;20.77;6.75;;;3.10;99.90;;;;;;5294427;28;20011;-78
2022/01/17 06:36:10;;;;;;;18.80;6.07;;;3.40;99.90;;;;;;5294270;28;20085;-76
2022/01/17 06:38:41;;;;;;;16.55;5.13;;;3.40;99.90;;;;;;5293733;28;20062;-76
2022/01/17 06:41:12;;;;;;;16.27;5.63;;;3.40;99.90;;;;;;5294284;28;20088;-75
2022/01/17 06:43:43;;;;;;;16.00;5.38;;;3.40;99.90;;;;;;5294102;28;20412;-73
2022/01/17 06:46:14;;;;;;;13.48;4.70;;;3.40;99.90;;;;;;5294144;28;20114;-77
2022/01/17 06:48:46;;;;;;;12.18;4.95;;;3.50;99.90;;;;;;5294018;28;20039;-77
2022/01/17 06:51:18;;;;;;;15.38;5.95;;;3.70;99.90;;;;;;5301690;27;20028;-73
2022/01/17 06:53:50;;;;;;;15.68;5.28;;;3.80;99.90;;;;;;5294226;28;20024;-74
2022/01/17 06:56:21;;;;;;;18.63;6.00;;;3.90;99.90;;;;;;5293805;28;20023;-72
2022/01/17 06:58:52;;;;;;;16.25;6.00;;;4.10;99.90;;;;;;5293525;28;20087;-77
2022/01/17 07:01:23;;;;;;;15.73;6.85;;;4.10;99.90;;;;;;5293775;28;20043;-71
2022/01/17 07:03:54;;;;;;;18.05;6.35;;;4.10;99.90;;;;;;5293777;28;20032;-75
2022/01/17 07:06:25;;;;;;;18.65;6.07;;;4.10;99.90;;;;;;5293744;28;20023;-77
2022/01/17 07:08:56;;;;;;;19.45;6.80;;;4.20;99.90;;;;;;5294105;28;20106;-76
2022/01/17 07:11:27;;;;;;;12.00;4.75;;;4.30;99.90;;;;;;5293538;28;20047;-77
2022/01/17 07:13:57;;;;;;;17.42;6.32;;;4.60;99.90;;;;;;5293666;28;20435;-77
2022/01/17 07:16:28;;;;;;;15.38;5.82;;;4.50;99.90;;;;;;5293484;28;20089;-76
2022/01/17 07:18:59;;;;;;;13.15;6.10;;;4.50;99.90;;;;;;5293321;28;20111;-77
2022/01/17 07:21:31;;;;;;;15.10;5.28;;;4.50;99.90;;;;;;5293400;28;20023;-70
2022/01/17 07:24:02;;;;;;;14.25;5.65;;;4.60;99.90;;;;;;5293478;28;20512;-70
2022/01/17 07:26:33;;;;;;;17.67;5.45;;;4.70;99.90;;;;;;5294830;27;20027;-69
2022/01/17 07:29:10;;;;;;;13.30;6.32;;;4.80;99.90;;;;;;5305054;27;20602;-71
2022/01/17 07:31:41;;;;;;;14.13;5.43;;;4.90;99.90;;;;;;5300652;27;20374;-76
2022/01/17 07:34:12;;;;;;;23.30;9.50;;;5.00;99.90;;;;;;5292943;28;20015;-78
2022/01/17 07:36:43;;;;;;;15.48;6.20;;;5.00;99.90;;;;;;5293031;28;20032;-74
2022/01/17 07:39:14;;;;;;;14.80;5.72;;;5.20;99.90;;;;;;5292957;28;20106;-74
2022/01/17 07:41:45;;;;;;;15.60;6.00;;;5.50;99.90;;;;;;5292954;28;20027;-73
2022/01/17 07:44:23;;;;;;;11.40;5.15;;;5.50;99.90;;;;;;5292947;28;20015;-70
2022/01/17 07:46:56;;;;;;;10.55;4.63;;;5.80;99.90;;;;;;5293014;28;20087;-70
2022/01/17 07:49:28;;;;;;;10.32;3.83;;;5.70;99.90;;;;;;5292910;28;20012;-70
2022/01/17 07:52:03;;;;;;;15.40;6.13;;;5.90;99.90;;;;;;5303205;27;20031;-70
2022/01/17 07:54:43;;;;;;;12.07;5.32;;;5.90;99.90;;;;;;5300272;27;20012;-70
2022/01/17 07:57:14;;;;;;;13.07;4.55;;;6.40;99.90;;;;;;5292389;28;20035;-70
2022/01/17 07:59:45;;;;;;;12.20;4.53;;;6.20;99.90;;;;;;5292506;28;20039;-70
2022/01/17 08:02:16;;;;;;;12.60;4.80;;;6.40;99.90;;;;;;5292543;28;20433;-72
2022/01/17 08:04:47;;;;;;;11.07;4.45;;;6.10;99.90;;;;;;5301633;27;20039;-77
2022/01/17 08:07:17;;;;;;;12.98;4.15;;;6.30;99.90;;;;;;5307576;27;20140;-70
2022/01/17 08:09:48;;;;;;;11.00;4.25;;;6.50;99.90;;;;;;5292385;28;20450;-71
2022/01/17 08:12:19;;;;;;;10.60;4.47;;;6.60;99.90;;;;;;5292585;28;20120;-71
2022/01/17 08:14:50;;;;;;;13.55;4.07;;;7.00;99.90;;;;;;5292227;28;20055;-72
2022/01/17 08:17:21;;;;;;;10.63;4.40;;;7.30;99.90;;;;;;5292355;28;20463;-72
2022/01/17 08:19:52;;;;;;;11.35;4.80;;;6.80;99.90;;;;;;5292125;28;20032;-71
2022/01/17 08:22:22;;;;;;;9.60;4.82;;;7.30;99.90;;;;;;5292182;28;20027;-72
2022/01/17 08:24:53;;;;;;;12.30;5.00;;;6.80;99.90;;;;;;5292202;28;20012;-71
2022/01/17 08:27:24;;;;;;;9.43;4.28;;;6.50;99.90;;;;;;5292021;28;20055;-71
2022/01/17 08:29:55;;;;;;;11.88;4.88;;;6.40;99.90;;;;;;5292098;28;20016;-70
2022/01/17 08:32:28;;;;;;;9.63;4.47;;;6.20;99.90;;;;;;5292038;28;20019;-71
2022/01/17 08:35:00;;;;;;;10.50;4.25;;;6.30;99.90;;;;;;5291522;28;20024;-71
2022/01/17 08:37:31;;;;;;;14.95;4.93;;;6.30;99.90;;;;;;5291179;28;20036;-71
2022/01/17 08:40:05;;;;;;;7.63;3.80;;;6.50;99.90;;;;;;5291248;28;20370;-72
2022/01/17 08:42:37;;;;;;;12.40;5.05;;;6.70;99.90;;;;;;5291834;28;20102;-70
2022/01/17 08:45:11;;;;;;;15.55;5.28;;;6.90;99.90;;;;;;5291670;28;20027;-72
2022/01/17 08:47:46;;;;;;;13.27;4.88;;;7.00;99.90;;;;;;5291601;28;20023;-76
2022/01/17 08:50:19;;;;;;;11.65;4.00;;;7.10;99.90;;;;;;5291565;28;20106;-76
2022/01/17 08:52:50;;;;;;;11.13;4.55;;;7.40;99.90;;;;;;5291578;28;20110;-77
2022/01/17 08:55:22;;;;;;;11.63;4.80;;;7.50;99.90;;;;;;5291404;28;20024;-76
2022/01/17 08:57:53;;;;;;;12.45;3.88;;;7.30;99.90;;;;;;5291160;28;20079;-77
2022/01/17 09:00:23;;;;;;;12.85;4.50;;;7.30;99.90;;;;;;5291601;28;20093;-76
2022/01/17 09:02:54;;;;;;;10.45;4.30;;;7.30;99.90;;;;;;5291473;28;20027;-74
2022/01/17 09:05:25;;;;;;;11.80;4.50;;;7.30;99.90;;;;;;5291529;28;20031;-77
2022/01/17 09:07:56;;;;;;;13.45;5.43;;;6.80;99.90;;;;;;5290751;28;20384;-76
2022/01/17 09:10:28;;;;;;;11.55;4.43;;;6.80;99.90;;;;;;5289902;28;20031;-76
2022/01/17 09:12:59;;;;;;;12.00;5.18;;;6.70;99.90;;;;;;5290238;28;20411;-76
2022/01/17 09:15:30;;;;;;;10.43;4.43;;;6.80;99.90;;;;;;5272459;28;20093;-75
2022/01/17 09:18:01;;;;;;;13.23;4.43;;;7.20;99.90;;;;;;5290527;28;20076;-76
2022/01/17 09:20:35;;;;;;;10.30;4.90;;;6.90;99.90;;;;;;5290630;28;20038;-76
2022/01/17 09:23:06;;;;;;;14.88;4.88;;;7.10;99.90;;;;;;5290596;28;20019;-76
2022/01/17 09:25:37;;;;;;;14.02;5.22;;;7.10;99.90;;;;;;5290499;28;20424;-76
2022/01/17 09:28:08;;;;;;;13.52;5.47;;;7.40;99.90;;;;;;5289677;28;20059;-76
2022/01/17 09:30:39;;;;;;;11.80;5.80;;;7.10;99.90;;;;;;5290217;28;20347;-76
2022/01/17 09:33:10;;;;;;;18.08;6.97;;;6.90;99.90;;;;;;5290318;28;20058;-77
2022/01/17 09:35:41;;;;;;;17.55;5.85;;;7.10;99.90;;;;;;5290355;28;20517;-77
2022/01/17 09:38:12;;;;;;;12.40;5.18;;;7.40;99.90;;;;;;5290139;28;20055;-76
2022/01/17 09:40:44;;;;;;;11.27;4.45;;;7.40;99.90;;;;;;5290278;28;20496;-76
2022/01/17 09:43:15;;;;;;;12.73;5.70;;;7.30;99.90;;;;;;5290184;28;20008;-77
2022/01/17 09:45:45;;;;;;;13.05;5.07;;;7.40;99.90;;;;;;5290196;28;20031;-77
2022/01/17 09:48:21;;;;;;;16.45;5.53;;;7.40;99.90;;;;;;5292984;27;20544;-73
2022/01/17 09:51:02;;;;;;;11.90;4.63;;;7.40;99.90;;;;;;5282688;28;20023;-77
2022/01/17 09:53:38;;;;;;;12.90;5.18;;;7.40;99.90;;;;;;5311938;27;20019;-71
2022/01/17 09:56:12;;;;;;;14.50;5.13;;;7.50;99.90;;;;;;5311919;27;20098;-75
2022/01/17 09:58:43;;;;;;;16.95;5.38;;;7.80;99.90;;;;;;5311328;27;20080;-76
2022/01/17 10:01:15;;;;;;;10.52;5.00;;;8.30;99.90;;;;;;5311622;27;20047;-77
2022/01/17 10:03:47;;;;;;;14.57;5.07;;;8.40;99.90;;;;;;5311698;27;20027;-75
2022/01/17 10:06:18;;;;;;;13.48;5.70;;;8.40;99.90;;;;;;5311488;28;20111;-76
2022/01/17 10:09:12;;;;;;;14.30;5.60;;;8.30;99.90;;;;;;5311162;28;20019;-77
2022/01/17 10:12:02;;;;;;;12.10;4.93;;;8.10;99.90;;;;;;5311367;28;20369;-77
2022/01/17 10:14:46;;;;;;;9.45;4.28;;;8.00;99.90;;;;;;5311410;28;20019;-70
2022/01/17 10:17:17;;;;;;;13.90;5.18;;;7.70;99.90;;;;;;5311600;28;20023;-71
2022/01/17 10:20:00;;;;;;;11.70;5.20;;;7.40;99.90;;;;;;5311593;28;20038;-69
2022/01/17 10:22:42;;;;;;;11.52;5.32;;;7.60;99.90;;;;;;5311595;28;20046;-72
2022/01/17 10:25:49;;;;;;;11.40;5.10;;;8.10;99.90;;;;;;5311320;28;20477;-70
2022/01/17 10:31:33;;;;;;;10.90;4.45;;;8.20;99.90;;;;;;5311456;28;20106;-70
2022/01/17 10:36:50;;;;;;;12.27;5.35;;;7.80;99.90;;;;;;5310903;28;20110;-70
2022/01/17 10:39:21;;;;;;;13.40;5.28;;;7.60;99.90;;;;;;5310430;28;20039;-71
2022/01/17 10:41:52;;;;;;;11.65;4.93;;;7.90;99.90;;;;;;5310707;28;20019;-69
2022/01/17 10:44:36;;;;;;;11.23;4.38;;;7.90;99.90;;;;;;5310656;28;20034;-71
2022/01/17 10:47:20;;;;;;;14.38;5.03;;;8.20;99.90;;;;;;5310657;28;20024;-71
2022/01/17 10:50:00;;;;;;;14.77;4.90;;;8.40;99.90;;;;;;5292855;28;20385;-72
2022/01/17 10:52:33;;;;;;;9.88;5.25;;;8.70;99.90;;;;;;5311312;28;20034;-72
2022/01/17 10:55:28;;;;;;;8.65;4.50;;;8.50;99.90;;;;;;5311105;28;20057;-71
2022/01/17 10:58:03;;;;;;;8.35;4.25;;;8.60;99.90;;;;;;5292297;28;20047;-72
2022/01/17 11:00:37;;;;;;;11.63;5.07;;;9.20;99.90;;;;;;5311256;27;20462;-70
2022/01/17 11:03:12;;;;;;;11.82;4.60;;;8.70;99.90;;;;;;5314390;27;20027;-73
2022/01/17 11:05:46;;;;;;;7.55;4.20;;;9.20;99.90;;;;;;5314995;27;20019;-76
2022/01/17 11:08:18;;;;;;;13.98;5.07;;;9.70;99.90;;;;;;5315190;27;20031;-73
2022/01/17 11:10:52;;;;;;;15.20;8.07;;;9.10;99.90;;;;;;5314949;27;20370;-77
2022/01/17 11:13:27;;;;;;;10.68;4.88;;;9.40;99.90;;;;;;5314776;27;20023;-77
2022/01/17 11:16:00;;;;;;;10.18;4.53;;;9.10;99.90;;;;;;5314862;27;20050;-73
2022/01/17 11:18:31;;;;;;;8.70;4.57;;;9.40;99.90;;;;;;5314829;27;20023;-79
2022/01/17 11:21:10;;;;;;;7.15;4.15;;;9.20;99.90;;;;;;5314811;27;20184;-75
2022/01/17 11:23:45;;;;;;;9.75;4.70;;;9.40;99.90;;;;;;5314822;27;20094;-76
2022/01/17 11:26:18;;;;;;;10.18;5.10;;;9.40;99.90;;;;;;5314438;27;20045;-77
2022/01/17 11:28:54;;;;;;;10.38;5.32;;;9.60;99.90;;;;;;5314557;27;20058;-77
2022/01/17 11:31:26;;;;;;;9.57;4.97;;;9.40;99.90;;;;;;5314515;27;20027;-75
2022/01/17 11:33:57;;;;;;;20.17;9.23;;;9.40;99.90;;;;;;5314487;27;20023;-74
2022/01/17 11:36:28;;;;;;;10.85;5.85;;;9.70;99.90;;;;;;5314362;27;20022;-74
2022/01/17 11:38:59;;;;;;;11.88;5.97;;;9.90;99.90;;;;;;5314319;27;20373;-75
2022/01/17 11:41:36;;;;;;;10.35;6.13;;;9.20;99.90;;;;;;5314494;27;20485;-75
2022/01/17 11:44:08;;;;;;;15.60;6.50;;;9.20;99.90;;;;;;5314363;27;20042;-75
2022/01/17 11:46:53;;;;;;;10.82;6.00;;;9.40;99.90;;;;;;5314172;27;20050;-74
2022/01/17 11:49:31;;;;;;;8.10;4.35;;;9.20;99.90;;;;;;5314270;27;20017;-74
2022/01/17 11:52:07;;;;;;;13.05;5.65;;;9.50;99.90;;;;;;5314361;27;20019;-71
2022/01/17 11:54:44;;;;;;;11.35;5.72;;;8.90;99.90;;;;;;5314195;27;20631;-74
2022/01/17 11:57:23;;;;;;;12.80;5.07;;;8.90;99.90;;;;;;5313828;27;20032;-74
2022/01/17 11:59:55;;;;;;;10.35;6.32;;;9.20;99.90;;;;;;5314200;27;20039;-73
2022/01/17 12:02:28;;;;;;;15.90;5.32;;;9.30;99.90;;;;;;5313956;27;20015;-74
2022/01/17 12:05:08;;;;;;;8.73;4.97;;;9.30;99.90;;;;;;5313970;27;20059;-74
2022/01/17 12:07:53;;;;;;;13.50;5.60;;;9.70;99.90;;;;;;5313720;27;20020;-74
2022/01/17 12:10:39;;;;;;;10.52;5.30;;;9.50;99.90;;;;;;5313595;27;20033;-76
2022/01/17 12:13:21;;;;;;;10.15;5.45;;;9.60;99.90;;;;;;5313693;27;20047;-74
2022/01/17 12:16:13;;;;;;;11.88;5.45;;;9.60;99.90;;;;;;5313821;27;20030;-73
2022/01/17 12:19:10;;;;;;;9.55;5.25;;;9.30;99.90;;;;;;5313701;27;20030;-74
2022/01/17 12:21:56;;;;;;;13.00;5.43;;;9.90;99.90;;;;;;5308919;27;20086;-73
2022/01/17 12:24:38;;;;;;;13.57;5.85;;;9.90;99.90;;;;;;5313538;27;20026;-75
2022/01/17 12:27:12;;;;;;;14.20;5.43;;;9.40;99.90;;;;;;5313169;27;20118;-74
2022/01/17 12:29:52;;;;;;;9.18;5.57;;;9.50;99.90;;;;;;5313260;27;20099;-74
2022/01/17 12:32:26;;;;;;;10.25;5.93;;;9.70;99.90;;;;;;5313442;27;20413;-75
2022/01/17 12:35:22;;;;;;;11.43;5.65;;;9.40;99.90;;;;;;5313228;27;20023;-74
2022/01/17 12:38:07;;;;;;;15.57;7.20;;;9.80;99.90;;;;;;5313225;27;20027;-73
2022/01/17 12:40:40;;;;;;;11.35;5.13;;;10.00;99.90;;;;;;5313188;27;20031;-74
2022/01/17 12:43:12;;;;;;;27.77;12.45;;;9.80;99.90;;;;;;5313072;27;20362;-73
2022/01/17 12:45:45;;;;;;;11.35;5.60;;;10.20;99.90;;;;;;5313236;27;20034;-74
2022/01/17 12:48:20;;;;;;;13.57;5.60;;;10.50;99.90;;;;;;5313003;27;20019;-72
2022/01/17 12:50:53;;;;;;;17.50;8.93;;;10.30;99.90;;;;;;5313076;27;20060;-74
2022/01/17 12:53:26;;;;;;;14.20;5.30;;;10.20;99.90;;;;;;5313025;27;20023;-73
2022/01/17 12:56:02;;;;;;;14.57;6.15;;;10.30;99.90;;;;;;5313094;27;20470;-74
2022/01/17 12:58:36;;;;;;;13.18;5.82;;;9.90;99.90;;;;;;5312519;27;20047;-75
2022/01/17 13:01:13;;;;;;;11.70;6.25;;;9.70;99.90;;;;;;5312817;27;20100;-72
2022/01/17 13:03:46;;;;;;;15.10;6.18;;;9.80;99.90;;;;;;5312906;27;20093;-73
2022/01/17 13:06:19;;;;;;;11.80;5.45;;;9.70;99.90;;;;;;5312725;27;20012;-74
2022/01/17 13:08:50;;;;;;;17.08;6.22;;;9.40;99.90;;;;;;5312715;27;20027;-75
2022/01/17 13:11:22;;;;;;;9.82;5.13;;;9.40;99.90;;;;;;5312663;27;20019;-73
2022/01/17 13:13:58;;;;;;;14.38;5.55;;;9.30;99.90;;;;;;5312588;27;20027;-71
2022/01/17 13:16:31;;;;;;;13.45;5.72;;;9.30;99.90;;;;;;5312765;27;20015;-74
2022/01/17 13:19:05;;;;;;;20.55;7.80;;;9.30;99.90;;;;;;5312462;27;20038;-71
2022/01/17 13:21:39;;;;;;;12.50;5.60;;;9.10;99.90;;;;;;5312166;27;20023;-72
2022/01/17 13:24:17;;;;;;;43.40;21.20;;;9.30;99.90;;;;;;5312246;27;20580;-77
2022/01/17 13:26:57;;;;;;;41.42;19.77;;;9.10;99.90;;;;;;5312542;27;20022;-77
2022/01/17 13:29:36;;;;;;;13.63;6.25;;;9.00;99.90;;;;;;5313005;27;20072;-76
2022/01/17 13:32:11;;;;;;;10.98;5.85;;;9.10;99.90;;;;;;5312572;27;20030;-75
2022/01/17 13:34:42;;;;;;;25.83;12.95;;;9.20;99.90;;;;;;5312075;27;20019;-76
2022/01/17 13:37:15;;;;;;;11.52;5.07;;;9.10;99.90;;;;;;5312154;27;20481;-76
2022/01/17 13:39:45;;;;;;;15.23;6.85;;;9.00;99.90;;;;;;5312021;27;20371;-76